createdAt,value
2017-11-12T00:01:37.751Z,13.60
2017-11-12T00:04:05.370Z,16.60
2017-11-12T00:06:32.929Z,18.40
2017-11-12T00:09:00.473Z,10.88
2017-11-12T00:11:28.035Z,12.57
2017-11-12T00:13:55.568Z,11.40
2017-11-12T00:16:23.881Z,13.20
2017-11-12T00:18:51.411Z,12.13
2017-11-12T00:21:19.735Z,14.27
2017-11-12T00:23:47.283Z,9.35
2017-11-12T00:26:14.812Z,12.70
2017-11-12T00:28:43.111Z,9.20
2017-11-12T00:31:10.681Z,13.10
2017-11-12T00:33:39.268Z,15.50
2017-11-12T00:36:06.803Z,8.88
2017-11-12T00:38:34.336Z,16.08
2017-11-12T00:41:01.944Z,9.25
2017-11-12T00:43:29.495Z,8.85
2017-11-12T00:45:57.064Z,14.98
2017-11-12T00:48:24.592Z,12.15
2017-11-12T00:50:52.896Z,15.40
2017-11-12T00:53:20.417Z,9.05
2017-11-12T00:55:47.954Z,8.60
2017-11-12T00:58:15.489Z,18.73
2017-11-12T01:00:43.017Z,8.63
2017-11-12T01:03:11.313Z,11.57
2017-11-12T01:05:38.853Z,13.88
2017-11-12T01:08:07.157Z,13.85
2017-11-12T01:10:34.710Z,7.63
2017-11-12T01:13:02.246Z,12.68
2017-11-12T01:15:30.537Z,12.27
2017-11-12T01:17:58.074Z,8.63
2017-11-12T01:20:25.592Z,12.20
2017-11-12T01:22:53.135Z,12.48
2017-11-12T01:25:20.652Z,19.90
2017-11-12T01:27:48.187Z,8.82
2017-11-12T01:30:15.703Z,8.97
2017-11-12T01:32:43.236Z,13.38
2017-11-12T01:35:11.672Z,13.07
2017-11-12T01:37:39.224Z,6.28
2017-11-12T01:40:06.767Z,6.22
2017-11-12T01:42:34.329Z,20.50
2017-11-12T01:45:01.909Z,12.82
2017-11-12T01:47:29.452Z,15.98
2017-11-12T01:49:57.025Z,12.13
2017-11-12T01:52:24.557Z,9.88
2017-11-12T01:54:52.079Z,8.68
2017-11-12T01:57:19.704Z,10.23
2017-11-12T01:59:47.267Z,10.55
2017-11-12T02:02:14.807Z,7.20
2017-11-12T02:04:42.382Z,6.97
2017-11-12T02:07:09.944Z,13.75
2017-11-12T02:09:37.504Z,9.70
2017-11-12T02:12:05.060Z,11.45
2017-11-12T02:14:32.573Z,9.30
2017-11-12T02:17:00.120Z,21.20
2017-11-12T02:19:27.644Z,11.70
2017-11-12T02:21:55.176Z,11.65
2017-11-12T02:24:23.491Z,12.68
2017-11-12T02:26:51.015Z,15.30
2017-11-12T02:29:19.327Z,15.77
2017-11-12T02:31:46.867Z,10.63
2017-11-12T02:34:14.447Z,9.40
2017-11-12T02:36:42.014Z,12.52
2017-11-12T02:39:09.539Z,9.65
2017-11-12T02:41:37.815Z,10.77
2017-11-12T02:44:06.141Z,12.03
2017-11-12T02:46:33.652Z,13.67
2017-11-12T02:49:01.953Z,12.13
2017-11-12T02:51:29.520Z,10.13
2017-11-12T02:53:57.075Z,20.77
2017-11-12T02:56:24.599Z,15.27
2017-11-12T02:58:52.922Z,11.57
2017-11-12T03:01:20.488Z,13.85
2017-11-12T03:03:48.047Z,15.32
2017-11-12T03:06:15.573Z,14.32
2017-11-12T03:08:43.110Z,11.15
2017-11-12T03:11:10.629Z,10.43
2017-11-12T03:13:38.179Z,18.40
2017-11-12T03:16:05.693Z,13.50
2017-11-12T03:18:33.234Z,11.88
2017-11-12T03:21:00.751Z,14.57
2017-11-12T03:23:28.283Z,19.95
2017-11-12T03:25:56.570Z,19.35
2017-11-12T03:28:24.860Z,14.82
2017-11-12T03:30:52.474Z,8.82
2017-11-12T03:33:19.992Z,9.10
2017-11-12T03:35:47.533Z,11.65
2017-11-12T03:38:15.816Z,11.68
2017-11-12T03:40:43.348Z,12.82
2017-11-12T03:43:11.639Z,9.40
2017-11-12T03:45:39.959Z,15.55
2017-11-12T03:48:07.518Z,11.50
2017-11-12T03:50:35.044Z,8.60
2017-11-12T03:53:03.319Z,14.40
2017-11-12T03:55:31.621Z,7.82
2017-11-12T03:57:59.132Z,10.35
2017-11-12T04:00:26.669Z,12.48
2017-11-12T04:02:54.199Z,11.50
2017-11-12T04:05:21.764Z,10.93
2017-11-12T04:07:49.282Z,12.73
2017-11-12T04:10:16.881Z,12.25
2017-11-12T04:12:44.396Z,14.05
2017-11-12T04:15:12.016Z,9.98
2017-11-12T04:17:39.530Z,8.82
2017-11-12T04:20:07.821Z,9.32
2017-11-12T04:22:35.402Z,13.45
2017-11-12T04:25:02.931Z,12.02
2017-11-12T04:27:31.241Z,8.40
2017-11-12T04:29:58.780Z,12.27
2017-11-12T04:32:27.057Z,16.55
2017-11-12T04:34:54.646Z,9.13
2017-11-12T04:37:22.157Z,9.73
2017-11-12T04:39:50.489Z,15.48
2017-11-12T04:42:18.005Z,43.55
2017-11-12T04:44:46.300Z,10.38
2017-11-12T04:47:13.820Z,11.43
2017-11-12T04:49:41.364Z,11.98
2017-11-12T04:52:08.884Z,18.27
2017-11-12T04:54:36.401Z,24.12
2017-11-12T04:57:03.935Z,9.82
2017-11-12T04:59:31.483Z,11.30
2017-11-12T05:01:59.040Z,10.38
2017-11-12T05:04:26.553Z,9.95
2017-11-12T05:06:54.151Z,12.43
2017-11-12T05:09:21.712Z,21.17
2017-11-12T05:11:49.276Z,7.70
2017-11-12T05:14:16.841Z,11.63
2017-11-12T05:16:44.367Z,15.13
2017-11-12T05:19:12.648Z,10.95
2017-11-12T05:21:41.053Z,42.35
2017-11-12T05:24:08.560Z,13.93
2017-11-12T05:26:36.172Z,17.87
2017-11-12T05:29:03.693Z,10.77
2017-11-12T05:31:31.301Z,20.10
2017-11-12T05:33:58.827Z,13.85
2017-11-12T05:36:27.149Z,14.32
2017-11-12T05:38:54.663Z,15.90
2017-11-12T05:41:22.975Z,14.60
2017-11-12T05:43:50.497Z,11.50
2017-11-12T05:46:18.100Z,12.93
2017-11-12T05:48:45.613Z,20.13
2017-11-12T05:51:13.229Z,10.13
2017-11-12T05:53:40.781Z,9.65
2017-11-12T05:56:09.067Z,13.25
2017-11-12T05:58:36.600Z,13.10
2017-11-12T06:01:04.900Z,15.00
2017-11-12T06:03:32.424Z,14.17
2017-11-12T06:06:00.723Z,12.05
2017-11-12T06:08:28.271Z,14.57
2017-11-12T06:10:56.551Z,12.52
2017-11-12T06:13:24.846Z,14.10
2017-11-12T06:15:52.360Z,10.38
2017-11-12T06:18:19.887Z,13.77
2017-11-12T06:20:47.405Z,18.67
2017-11-12T06:23:15.697Z,22.90
2017-11-12T06:25:43.264Z,12.77
2017-11-12T06:28:10.801Z,17.67
2017-11-12T06:30:39.100Z,14.75
2017-11-12T06:33:06.632Z,17.77
2017-11-12T06:35:34.941Z,14.38
2017-11-12T06:38:02.500Z,33.03
2017-11-12T06:40:30.073Z,12.47
2017-11-12T06:42:57.629Z,19.67
2017-11-12T06:45:25.184Z,14.25
2017-11-12T06:47:52.708Z,28.87
2017-11-12T06:50:21.018Z,15.70
2017-11-12T06:52:48.586Z,17.10
2017-11-12T06:55:16.119Z,13.37
2017-11-12T06:57:43.663Z,21.52
2017-11-12T07:00:11.176Z,15.73
2017-11-12T07:02:38.702Z,14.90
2017-11-12T07:05:06.995Z,14.20
2017-11-12T07:07:34.564Z,16.17
2017-11-12T07:10:02.083Z,12.18
2017-11-12T07:12:29.599Z,14.48
2017-11-12T07:14:57.147Z,17.27
2017-11-12T07:17:24.695Z,26.57
2017-11-12T07:19:52.260Z,20.63
2017-11-12T07:22:19.779Z,22.30
2017-11-12T07:24:47.375Z,16.20
2017-11-12T07:27:14.884Z,17.13
2017-11-12T07:29:42.511Z,19.70
2017-11-12T07:32:10.033Z,18.03
2017-11-12T07:34:38.349Z,14.47
2017-11-12T07:37:05.909Z,16.17
2017-11-12T07:39:33.473Z,20.43
2017-11-12T07:42:00.993Z,19.80
2017-11-12T07:44:29.305Z,18.00
2017-11-12T07:46:56.812Z,15.47
2017-11-12T07:49:24.349Z,15.05
2017-11-12T07:51:51.867Z,19.50
2017-11-12T07:54:20.271Z,16.53
2017-11-12T07:56:47.829Z,18.40
2017-11-12T07:59:15.384Z,18.07
2017-11-12T08:01:42.903Z,15.50
2017-11-12T08:04:10.432Z,18.37
2017-11-12T08:06:37.951Z,18.87
2017-11-12T08:09:05.564Z,19.47
2017-11-12T08:11:33.074Z,24.80
2017-11-12T08:14:00.594Z,18.30
2017-11-12T08:16:28.128Z,23.67
2017-11-12T08:18:55.676Z,16.10
2017-11-12T08:21:23.221Z,23.07
2017-11-12T08:23:50.749Z,20.60
2017-11-12T08:26:18.355Z,22.33
2017-11-12T08:28:45.869Z,22.80
2017-11-12T08:31:13.433Z,25.70
2017-11-12T08:33:41.732Z,25.43
2017-11-12T08:36:10.050Z,40.27
2017-11-12T08:38:37.576Z,36.83
2017-11-12T08:41:05.109Z,37.43
2017-11-12T08:43:33.417Z,29.63
2017-11-12T08:46:00.956Z,28.03
2017-11-12T08:48:29.253Z,30.77
2017-11-12T08:50:56.803Z,32.90
2017-11-12T08:53:25.097Z,31.93
2017-11-12T08:55:52.627Z,30.07
2017-11-12T08:58:21.050Z,33.70
2017-11-12T09:00:48.593Z,28.30
2017-11-12T09:03:16.108Z,29.03
2017-11-12T09:05:43.639Z,25.53
2017-11-12T09:08:11.160Z,38.53
2017-11-12T09:10:39.501Z,27.27
2017-11-12T09:13:07.040Z,33.93
2017-11-12T09:15:34.576Z,27.87
2017-11-12T09:18:02.099Z,26.60
2017-11-12T09:20:30.432Z,29.00
2017-11-12T09:22:57.952Z,33.47
2017-11-12T09:25:26.259Z,33.60
2017-11-12T09:27:53.831Z,30.97
2017-11-12T09:30:21.367Z,28.03
2017-11-12T09:32:48.888Z,29.20
2017-11-12T09:35:16.445Z,33.30
2017-11-12T09:37:44.095Z,34.40
2017-11-12T09:40:11.625Z,33.17
2017-11-12T09:42:39.204Z,32.87
2017-11-12T09:45:06.751Z,32.83
2017-11-12T09:47:34.317Z,36.30
2017-11-12T09:50:01.847Z,37.57
2017-11-12T09:52:29.395Z,37.67
2017-11-12T09:54:57.672Z,28.97
2017-11-12T09:57:25.972Z,38.90
2017-11-12T09:59:53.541Z,32.83
2017-11-12T10:02:21.116Z,32.77
2017-11-12T10:04:48.636Z,33.00
2017-11-12T10:07:16.173Z,30.27
2017-11-12T10:09:43.683Z,33.33
2017-11-12T10:12:11.250Z,33.67
2017-11-12T10:14:38.807Z,30.90
2017-11-12T10:17:06.423Z,35.70
2017-11-12T10:19:34.761Z,25.57
2017-11-12T10:22:02.312Z,32.23
2017-11-12T10:24:29.858Z,27.10
2017-11-12T10:26:57.405Z,29.20
2017-11-12T10:29:24.947Z,27.10
2017-11-12T10:31:52.657Z,25.90
2017-11-12T10:34:20.191Z,34.37
2017-11-12T10:36:48.503Z,26.70
2017-11-12T10:39:16.024Z,22.83
2017-11-12T10:41:44.325Z,23.87
2017-11-12T10:44:11.852Z,30.13
2017-11-12T10:46:40.202Z,25.70
2017-11-12T10:49:07.715Z,22.33
2017-11-12T10:51:35.224Z,21.20
2017-11-12T10:54:02.762Z,20.33
2017-11-12T10:56:30.339Z,21.80
2017-11-12T10:58:57.887Z,25.40
2017-11-12T11:01:25.441Z,21.03
2017-11-12T11:03:52.988Z,24.63
2017-11-12T11:06:20.562Z,17.30
2017-11-12T11:08:48.106Z,27.73
2017-11-12T11:11:15.626Z,20.17
2017-11-12T11:13:43.163Z,19.77
2017-11-12T11:16:10.679Z,17.50
2017-11-12T11:18:38.209Z,18.53
2017-11-12T11:21:06.559Z,17.70
2017-11-12T11:23:34.106Z,19.10
2017-11-12T11:26:01.625Z,21.87
2017-11-12T11:28:29.952Z,16.47
2017-11-12T11:30:57.520Z,17.13
2017-11-12T11:33:25.101Z,15.87
2017-11-12T11:35:52.773Z,19.73
2017-11-12T11:38:21.091Z,20.30
2017-11-12T11:40:48.646Z,19.33
2017-11-12T11:43:16.218Z,18.40
2017-11-12T11:45:43.772Z,23.17
2017-11-12T11:48:11.324Z,17.30
2017-11-12T11:50:38.902Z,16.90
2017-11-12T11:53:06.468Z,18.73
2017-11-12T11:55:33.993Z,16.30
2017-11-12T11:58:01.531Z,17.43
2017-11-12T12:00:29.041Z,20.87
2017-11-12T12:02:56.583Z,15.23
2017-11-12T12:05:24.101Z,22.73
2017-11-12T12:07:51.626Z,12.17
2017-11-12T12:10:19.153Z,11.83
2017-11-12T12:12:47.484Z,16.30
2017-11-12T12:15:15.041Z,10.93
2017-11-12T12:17:42.569Z,11.87
2017-11-12T12:20:10.099Z,11.10
2017-11-12T12:22:38.392Z,12.80
2017-11-12T12:25:06.685Z,11.90
2017-11-12T12:27:34.330Z,27.43
2017-11-12T12:30:02.627Z,11.90
2017-11-12T12:32:30.175Z,14.00
2017-11-12T12:34:57.750Z,15.00
2017-11-12T12:37:25.263Z,11.63
2017-11-12T12:39:52.844Z,12.27
2017-11-12T12:42:21.176Z,8.83
2017-11-12T12:44:48.696Z,7.17
2017-11-12T12:47:16.204Z,13.77
2017-11-12T12:49:43.809Z,6.90
2017-11-12T12:52:12.102Z,15.70
2017-11-12T12:54:39.624Z,13.10
2017-11-12T12:57:07.225Z,5.63
2017-11-12T12:59:34.765Z,5.20
2017-11-12T13:02:03.065Z,5.00
2017-11-12T13:04:30.627Z,4.20
2017-11-12T13:06:59.009Z,4.43
2017-11-12T13:09:26.612Z,4.37
2017-11-12T13:11:54.917Z,17.00
2017-11-12T13:14:23.233Z,5.43
2017-11-12T13:16:50.746Z,6.17
2017-11-12T13:19:18.265Z,4.20
2017-11-12T13:21:45.806Z,4.30
2017-11-12T13:24:13.323Z,6.93
2017-11-12T13:26:40.848Z,4.40
2017-11-12T13:29:08.354Z,8.23
2017-11-12T13:31:36.650Z,5.37
2017-11-12T13:34:04.169Z,4.60
2017-11-12T13:36:33.205Z,4.57
2017-11-12T13:39:00.774Z,5.00
2017-11-12T13:41:28.295Z,4.80
2017-11-12T13:43:55.804Z,5.50
2017-11-12T13:46:23.332Z,27.50
2017-11-12T13:48:51.631Z,6.40
2017-11-12T13:51:19.189Z,7.00
2017-11-12T13:53:46.713Z,6.47
2017-11-12T13:56:14.244Z,7.87
2017-11-12T13:58:41.759Z,4.70
2017-11-12T14:01:09.291Z,6.33
2017-11-12T14:03:36.926Z,4.87
2017-11-12T14:06:04.570Z,8.10
2017-11-12T14:08:32.115Z,4.90
2017-11-12T14:10:59.647Z,5.33
2017-11-12T14:13:27.920Z,6.23
2017-11-12T14:15:55.543Z,6.60
2017-11-12T14:18:23.055Z,8.53
2017-11-12T14:20:51.348Z,15.90
2017-11-12T14:23:18.868Z,6.67
2017-11-12T14:25:46.406Z,5.10
2017-11-12T14:28:13.911Z,5.80
2017-11-12T14:30:42.224Z,6.57
2017-11-12T14:33:09.744Z,9.20
2017-11-12T14:35:38.048Z,6.20
2017-11-12T14:38:05.559Z,6.53
2017-11-12T14:40:33.070Z,6.63
2017-11-12T14:43:00.634Z,9.57
2017-11-12T14:45:28.144Z,8.37
2017-11-12T14:47:55.747Z,7.23
2017-11-12T14:50:23.256Z,9.20
2017-11-12T14:52:50.779Z,7.70
2017-11-12T14:55:18.332Z,11.63
2017-11-12T14:57:45.896Z,7.83
2017-11-12T15:00:13.451Z,10.20
2017-11-12T15:02:41.017Z,7.27
2017-11-12T15:05:08.532Z,8.07
2017-11-12T15:07:36.840Z,7.73
2017-11-12T15:10:04.374Z,9.17
2017-11-12T15:12:31.971Z,7.77
2017-11-12T15:14:59.480Z,7.33
2017-11-12T15:17:27.007Z,8.67
2017-11-12T15:19:54.562Z,9.10
2017-11-12T15:22:22.084Z,7.40
2017-11-12T15:24:50.384Z,7.60
2017-11-12T15:27:17.948Z,17.57
2017-11-12T15:29:45.511Z,8.83
2017-11-12T15:32:13.048Z,9.60
2017-11-12T15:34:41.319Z,8.90
2017-11-12T15:37:09.629Z,9.30
2017-11-12T15:39:37.144Z,9.00
2017-11-12T15:42:04.672Z,16.33
2017-11-12T15:44:32.214Z,12.37
2017-11-12T15:46:59.740Z,41.80
2017-11-12T15:49:28.019Z,27.33
2017-11-12T15:51:56.322Z,13.97
2017-11-12T15:54:23.884Z,16.93
2017-11-12T15:56:51.440Z,10.37
2017-11-12T15:59:19.006Z,10.33
2017-11-12T16:01:46.520Z,9.90
2017-11-12T16:04:14.054Z,13.50
2017-11-12T16:06:41.592Z,20.90
2017-11-12T16:09:09.148Z,25.33
2017-11-12T16:11:36.668Z,13.20
2017-11-12T16:14:04.227Z,11.73
2017-11-12T16:16:31.835Z,20.87
2017-11-12T16:18:59.399Z,17.53
2017-11-12T16:21:26.951Z,21.20
2017-11-12T16:23:54.517Z,12.27
2017-11-12T16:26:22.031Z,14.40
2017-11-12T16:28:49.651Z,14.80
2017-11-12T16:31:17.151Z,18.80
2017-11-12T16:33:44.753Z,18.53
2017-11-12T16:36:12.265Z,12.77
2017-11-12T16:38:39.848Z,13.60
2017-11-12T16:41:08.194Z,14.80
2017-11-12T16:43:35.730Z,14.40
2017-11-12T16:46:03.284Z,12.07
2017-11-12T16:48:30.821Z,10.80
2017-11-12T16:50:58.400Z,21.40
2017-11-12T16:53:25.925Z,8.60
2017-11-12T16:55:54.196Z,8.10
2017-11-12T16:58:21.766Z,13.43
2017-11-12T17:00:50.054Z,12.43
2017-11-12T17:03:18.341Z,7.80
2017-11-12T17:05:45.939Z,11.13
2017-11-12T17:08:13.473Z,13.13
2017-11-12T17:10:41.011Z,7.73
2017-11-12T17:13:09.293Z,9.43
2017-11-12T17:15:37.610Z,12.10
2017-11-12T17:18:05.150Z,9.80
2017-11-12T17:20:32.704Z,11.73
2017-11-12T17:23:00.280Z,7.77
2017-11-12T17:25:27.825Z,12.50
2017-11-12T17:27:55.394Z,7.73
2017-11-12T17:30:22.944Z,7.10
2017-11-12T17:32:50.525Z,9.33
2017-11-12T17:35:18.066Z,10.13
2017-11-12T17:37:45.741Z,8.83
2017-11-12T17:40:13.282Z,9.33
2017-11-12T17:42:41.572Z,9.70
2017-11-12T17:45:09.102Z,9.50
2017-11-12T17:47:37.396Z,16.13
2017-11-12T17:50:05.692Z,14.70
2017-11-12T17:52:33.209Z,26.50
2017-11-12T17:55:00.767Z,13.27
2017-11-12T17:57:29.070Z,16.70
2017-11-12T17:59:56.624Z,17.17
2017-11-12T18:02:24.907Z,16.80
2017-11-12T18:04:53.320Z,13.40
2017-11-12T18:07:20.849Z,19.97
2017-11-12T18:09:49.149Z,15.67
2017-11-12T18:12:16.678Z,17.67
2017-11-12T18:14:44.997Z,14.77
2017-11-12T18:17:12.550Z,17.63
2017-11-12T18:19:40.220Z,19.73
2017-11-12T18:22:07.754Z,16.70
2017-11-12T18:24:35.311Z,17.50
2017-11-12T18:27:02.900Z,23.90
2017-11-12T18:29:30.453Z,21.60
2017-11-12T18:31:58.010Z,19.00
2017-11-12T18:34:25.573Z,16.93
2017-11-12T18:36:53.137Z,17.73
2017-11-12T18:39:20.693Z,17.43
2017-11-12T18:41:48.230Z,18.70
2017-11-12T18:44:16.533Z,18.10
2017-11-12T18:46:44.090Z,24.93
2017-11-12T18:49:11.609Z,18.87
2017-11-12T18:51:39.143Z,28.60
2017-11-12T18:54:06.701Z,23.93
2017-11-12T18:56:35.071Z,21.00
2017-11-12T18:59:02.595Z,21.50
2017-11-12T19:01:36.712Z,21.63
2017-11-12T19:04:20.014Z,20.30
2017-11-12T19:06:53.346Z,20.07
2017-11-12T19:09:26.578Z,23.13
2017-11-12T19:11:54.133Z,18.37
2017-11-12T19:14:21.652Z,35.60
2017-11-12T19:16:49.188Z,21.67
2017-11-12T19:19:16.713Z,19.13
2017-11-12T19:35:11.865Z,27.20
2017-11-12T19:37:40.179Z,32.70
2017-11-12T19:40:07.756Z,28.90
2017-11-12T19:42:35.406Z,28.77
2017-11-12T19:45:02.980Z,31.67
2017-11-12T19:47:30.685Z,34.20
2017-11-12T19:49:58.254Z,32.10
2017-11-12T19:52:26.589Z,30.20
2017-11-12T19:54:54.115Z,35.73
2017-11-12T19:57:21.679Z,30.00
2017-11-12T19:59:50.947Z,30.70
2017-11-12T20:02:19.253Z,30.97
2017-11-12T20:04:46.824Z,31.63
2017-11-12T20:07:14.364Z,33.27
2017-11-12T20:09:41.974Z,27.77
2017-11-12T20:12:09.520Z,32.93
2017-11-12T20:14:37.052Z,29.70
2017-11-12T20:17:04.599Z,29.30
2017-11-12T20:19:32.321Z,32.00
2017-11-12T20:21:59.850Z,34.27
2017-11-12T20:24:27.398Z,28.90
2017-11-12T20:26:54.940Z,31.67
2017-11-12T20:29:23.277Z,32.43
2017-11-12T20:31:50.824Z,29.73
2017-11-12T20:34:18.372Z,30.17
2017-11-12T20:36:45.965Z,35.10
2017-11-12T20:39:14.306Z,29.93
2017-11-12T20:41:41.850Z,26.43
2017-11-12T20:44:09.438Z,27.07
2017-11-12T20:46:36.973Z,32.10
2017-11-12T20:49:04.513Z,30.00
2017-11-12T20:51:32.804Z,32.67
2017-11-12T20:54:01.099Z,29.80
2017-11-12T20:56:28.608Z,33.50
2017-11-12T20:58:56.156Z,29.13
2017-11-12T21:01:23.684Z,30.97
2017-11-12T21:03:52.700Z,32.07
2017-11-12T21:06:20.217Z,36.97
2017-11-12T21:08:48.524Z,30.60
2017-11-12T21:11:16.053Z,31.50
2017-11-12T21:13:44.377Z,32.27
2017-11-12T21:16:11.924Z,29.03
2017-11-12T21:18:39.455Z,27.47
2017-11-12T21:21:08.335Z,30.90
2017-11-12T21:23:37.226Z,30.20
2017-11-12T21:26:05.537Z,27.23
2017-11-12T21:41:58.657Z,27.27
2017-11-12T21:44:26.956Z,26.10
2017-11-12T21:46:54.476Z,24.73
2017-11-12T21:49:22.084Z,24.67
2017-11-12T21:51:49.639Z,22.77
2017-11-12T21:54:17.160Z,26.50
2017-11-12T21:56:45.646Z,25.57
2017-11-12T21:59:13.182Z,25.83
2017-11-12T22:01:40.752Z,24.10
2017-11-12T22:04:09.042Z,25.17
2017-11-12T22:06:36.694Z,46.63
2017-11-12T22:09:04.229Z,25.10
2017-11-12T22:11:31.788Z,22.63
2017-11-12T22:13:59.326Z,25.30
2017-11-12T22:16:26.890Z,25.73
2017-11-12T22:18:54.425Z,21.97
2017-11-12T22:21:22.734Z,25.87
2017-11-12T22:23:50.267Z,28.30
2017-11-12T22:26:18.562Z,22.33
2017-11-12T22:28:46.123Z,25.50
2017-11-12T22:31:13.694Z,26.67
2017-11-12T22:33:41.225Z,29.33
2017-11-12T22:36:09.639Z,26.40
2017-11-12T22:38:37.177Z,25.87
2017-11-12T22:41:04.801Z,26.23
2017-11-12T22:43:32.345Z,25.93
2017-11-12T22:45:59.901Z,25.23
2017-11-12T22:48:27.540Z,24.43
2017-11-12T22:50:55.078Z,28.30
2017-11-12T22:53:22.607Z,28.47
2017-11-12T22:55:50.160Z,30.30
2017-11-12T22:58:17.788Z,25.77
2017-11-12T23:00:50.977Z,25.43
2017-11-12T23:03:18.501Z,22.73
2017-11-12T23:05:46.816Z,25.00
2017-11-12T23:08:14.357Z,39.50
2017-11-12T23:10:42.734Z,28.37
2017-11-12T23:13:11.050Z,29.57
2017-11-12T23:15:38.587Z,29.97
2017-11-12T23:18:06.826Z,27.77
2017-11-12T23:20:34.372Z,28.73
2017-11-12T23:23:02.005Z,26.00
2017-11-12T23:25:29.546Z,28.83
2017-11-12T23:27:57.222Z,29.67
2017-11-12T23:30:24.757Z,33.43
2017-11-12T23:32:52.352Z,34.10
2017-11-12T23:35:19.895Z,29.87
2017-11-12T23:37:47.418Z,29.20
2017-11-12T23:40:15.829Z,31.23
2017-11-12T23:42:43.374Z,28.40
2017-11-12T23:45:10.891Z,28.00
2017-11-12T23:47:38.434Z,28.77
2017-11-12T23:50:05.947Z,30.90
2017-11-12T23:52:34.365Z,30.43
2017-11-12T23:55:01.925Z,29.10
2017-11-12T23:57:29.484Z,29.23
2017-11-12T23:59:57.047Z,30.67
